createdAt,value
2023-03-24T00:00:03.551Z,999.43
2023-03-24T00:01:26.245Z,999.45
2023-03-24T00:02:28.092Z,999.46
2023-03-24T00:03:26.814Z,999.39
2023-03-24T00:04:26.728Z,999.40
2023-03-24T00:05:15.122Z,999.43
2023-03-24T00:06:16.157Z,999.41
2023-03-24T00:07:15.465Z,999.36
2023-03-24T00:08:20.345Z,999.35
2023-03-24T00:09:21.216Z,999.35
2023-03-24T00:10:20.697Z,999.33
2023-03-24T00:11:20.817Z,999.32
2023-03-24T00:12:21.075Z,999.26
2023-03-24T00:13:21.155Z,999.22
2023-03-24T00:14:21.250Z,999.21
2023-03-24T00:15:21.693Z,999.17
2023-03-24T00:16:21.943Z,999.23
2023-03-24T00:17:21.715Z,999.22
2023-03-24T00:18:21.806Z,999.25
2023-03-24T00:19:22.021Z,999.26
2023-03-24T00:20:22.380Z,999.25
2023-03-24T00:21:22.302Z,999.27
2023-03-24T00:22:52.458Z,999.30
2023-03-24T00:23:52.643Z,999.25
2023-03-24T00:25:08.230Z,999.23
2023-03-24T00:26:08.330Z,999.18
2023-03-24T00:27:08.549Z,999.16
2023-03-24T00:28:08.640Z,999.18
2023-03-24T00:29:08.753Z,999.22
2023-03-24T00:30:08.856Z,999.19
2023-03-24T00:31:09.053Z,999.18
2023-03-24T00:32:09.110Z,999.22
2023-03-24T00:33:09.284Z,999.22
2023-03-24T00:34:09.351Z,999.20
2023-03-24T00:35:09.554Z,999.16
2023-03-24T00:36:09.689Z,999.11
2023-03-24T00:37:09.763Z,999.03
2023-03-24T00:38:09.857Z,999.03
2023-03-24T00:39:09.960Z,999.01
2023-03-24T00:40:10.074Z,999.00
2023-03-24T00:41:10.184Z,999.00
2023-03-24T00:42:10.307Z,998.99
2023-03-24T00:43:10.415Z,999.03
2023-03-24T00:44:10.511Z,998.99
2023-03-24T00:45:10.614Z,998.98
2023-03-24T00:46:10.714Z,999.01
2023-03-24T00:47:11.527Z,998.96
2023-03-24T00:48:10.997Z,998.94
2023-03-24T00:49:11.181Z,998.95
2023-03-24T00:50:11.302Z,998.90
2023-03-24T00:51:11.465Z,998.93
2023-03-24T00:52:11.563Z,998.93
2023-03-24T00:53:11.794Z,998.91
2023-03-24T00:54:11.905Z,998.92
2023-03-24T00:55:12.006Z,998.90
2023-03-24T00:56:12.446Z,998.86
2023-03-24T00:57:12.255Z,998.89
2023-03-24T00:58:12.301Z,998.83
2023-03-24T00:59:12.408Z,998.82
2023-03-24T01:00:12.502Z,998.84
2023-03-24T01:01:12.668Z,998.86
2023-03-24T01:02:12.764Z,998.77
2023-03-24T01:03:12.876Z,998.76
2023-03-24T01:04:43.439Z,998.81
2023-03-24T01:05:22.652Z,998.81
2023-03-24T01:06:22.772Z,998.73
2023-03-24T01:07:22.885Z,998.75
2023-03-24T01:08:23.009Z,998.73
2023-03-24T01:09:23.163Z,998.74
2023-03-24T01:10:23.260Z,998.74
2023-03-24T01:11:26.416Z,998.71
2023-03-24T01:12:23.527Z,998.69
2023-03-24T01:13:23.647Z,998.63
2023-03-24T01:14:23.766Z,998.62
2023-03-24T01:15:24.087Z,998.61
2023-03-24T01:16:24.164Z,998.56
2023-03-24T01:17:24.355Z,998.55
2023-03-24T01:18:24.495Z,998.54
2023-03-24T01:19:24.617Z,998.51
2023-03-24T01:20:24.743Z,998.48
2023-03-24T01:21:24.843Z,998.46
2023-03-24T01:22:24.971Z,998.47
2023-03-24T01:23:25.090Z,998.44
2023-03-24T01:24:25.204Z,998.37
2023-03-24T01:25:25.336Z,998.39
2023-03-24T01:26:25.467Z,998.33
2023-03-24T01:27:25.587Z,998.38
2023-03-24T01:28:25.704Z,998.35
2023-03-24T01:29:25.824Z,998.40
2023-03-24T01:30:25.972Z,998.33
2023-03-24T01:31:26.289Z,998.25
2023-03-24T01:32:26.330Z,998.25
2023-03-24T01:33:26.440Z,998.18
2023-03-24T01:34:26.827Z,998.18
2023-03-24T01:35:29.123Z,998.15
2023-03-24T01:36:26.992Z,998.15
2023-03-24T01:37:27.160Z,998.13
2023-03-24T01:38:27.260Z,998.08
2023-03-24T01:39:27.929Z,998.11
2023-03-24T01:40:27.597Z,998.07
2023-03-24T01:41:27.718Z,998.04
2023-03-24T01:42:59.766Z,997.94
2023-03-24T01:43:59.848Z,997.92
2023-03-24T01:45:00.032Z,997.92
2023-03-24T01:46:00.249Z,997.86
2023-03-24T01:47:00.290Z,997.84
2023-03-24T01:48:00.443Z,997.87
2023-03-24T01:49:00.525Z,997.93
2023-03-24T01:50:00.612Z,997.99
2023-03-24T01:51:00.701Z,997.96
2023-03-24T01:52:00.797Z,997.97
2023-03-24T01:53:00.925Z,997.93
2023-03-24T01:54:01.211Z,997.91
2023-03-24T01:55:01.190Z,997.92
2023-03-24T01:56:01.313Z,997.95
2023-03-24T01:57:01.433Z,997.92
2023-03-24T01:58:01.514Z,997.89
2023-03-24T01:59:01.622Z,997.87
2023-03-24T02:00:01.704Z,997.83
2023-03-24T02:01:01.817Z,997.86
2023-03-24T02:02:01.894Z,997.81
2023-03-24T02:03:02.045Z,997.80
2023-03-24T02:04:02.181Z,997.79
2023-03-24T02:05:02.245Z,997.80
2023-03-24T02:06:02.432Z,997.77
2023-03-24T02:07:02.536Z,997.75
2023-03-24T02:08:02.707Z,997.68
2023-03-24T02:09:02.808Z,997.67
2023-03-24T02:11:23.310Z,997.61
2023-03-24T02:12:23.227Z,997.64
2023-03-24T02:13:23.336Z,997.60
2023-03-24T02:14:23.457Z,997.59
2023-03-24T02:15:23.629Z,997.62
2023-03-24T02:16:23.989Z,997.58
2023-03-24T02:17:23.835Z,997.57
2023-03-24T02:18:24.059Z,997.52
2023-03-24T02:19:25.098Z,997.56
2023-03-24T02:20:24.276Z,997.49
2023-03-24T02:21:53.199Z,997.47
2023-03-24T02:22:53.280Z,997.47
2023-03-24T02:23:53.512Z,997.49
2023-03-24T02:24:53.575Z,997.43
2023-03-24T02:25:53.773Z,997.38
2023-03-24T02:28:03.420Z,997.36
2023-03-24T02:29:02.665Z,997.37
2023-03-24T02:30:01.099Z,997.34
2023-03-24T02:31:01.315Z,997.33
2023-03-24T02:32:04.074Z,997.41
2023-03-24T02:33:01.670Z,997.30
2023-03-24T02:34:01.729Z,997.30
2023-03-24T02:35:01.856Z,997.29
2023-03-24T02:36:01.946Z,997.36
2023-03-24T02:37:02.085Z,997.28
2023-03-24T02:38:02.188Z,997.27
2023-03-24T02:39:02.280Z,997.27
2023-03-24T02:40:02.423Z,997.28
2023-03-24T02:41:02.529Z,997.28
2023-03-24T02:42:02.645Z,997.25
2023-03-24T02:43:02.759Z,997.27
2023-03-24T02:44:02.885Z,997.32
2023-03-24T02:45:03.464Z,997.37
2023-03-24T02:46:03.170Z,997.35
2023-03-24T02:47:03.271Z,997.34
2023-03-24T02:48:03.388Z,997.33
2023-03-24T02:49:03.473Z,997.33
2023-03-24T02:50:03.592Z,997.32
2023-03-24T02:51:03.691Z,997.35
2023-03-24T02:52:03.916Z,997.33
2023-03-24T02:53:04.026Z,997.26
2023-03-24T02:54:04.153Z,997.34
2023-03-24T02:55:04.266Z,997.26
2023-03-24T02:56:04.376Z,997.27
2023-03-24T02:57:04.582Z,997.31
2023-03-24T02:58:04.652Z,997.20
2023-03-24T02:59:04.756Z,997.20
2023-03-24T03:00:04.876Z,997.17
2023-03-24T03:01:05.018Z,997.18
2023-03-24T03:02:05.176Z,997.18
2023-03-24T03:03:05.339Z,997.14
2023-03-24T03:04:05.499Z,997.12
2023-03-24T03:05:05.580Z,997.08
2023-03-24T03:06:05.698Z,997.08
2023-03-24T03:07:05.827Z,997.07
2023-03-24T03:08:06.224Z,997.08
2023-03-24T03:09:06.097Z,997.00
2023-03-24T03:10:06.214Z,996.99
2023-03-24T03:11:06.305Z,996.96
2023-03-24T03:12:06.530Z,997.00
2023-03-24T03:13:06.636Z,996.96
2023-03-24T03:14:06.851Z,997.00
2023-03-24T03:15:06.961Z,996.93
2023-03-24T03:16:07.111Z,996.94
2023-03-24T03:17:07.227Z,996.95
2023-03-24T03:18:07.599Z,996.93
2023-03-24T03:19:07.494Z,996.89
2023-03-24T03:20:07.721Z,996.91
2023-03-24T03:21:07.829Z,996.91
2023-03-24T03:22:07.967Z,996.87
2023-03-24T03:22:55.326Z,996.89
2023-03-24T03:23:52.405Z,996.92
2023-03-24T03:24:52.525Z,996.81
2023-03-24T03:26:16.687Z,996.82
2023-03-24T03:26:58.651Z,996.89
2023-03-24T03:27:58.828Z,996.81
2023-03-24T03:28:58.935Z,996.81
2023-03-24T03:30:41.226Z,996.81
2023-03-24T03:31:41.362Z,996.77
2023-03-24T03:32:44.160Z,996.73
2023-03-24T03:33:41.610Z,996.73
2023-03-24T03:34:41.747Z,996.68
2023-03-24T03:35:41.909Z,996.66
2023-03-24T03:36:41.986Z,996.66
2023-03-24T03:37:42.114Z,996.70
2023-03-24T03:38:42.220Z,996.66
2023-03-24T03:39:42.328Z,996.64
2023-03-24T03:40:42.432Z,996.64
2023-03-24T03:41:42.638Z,996.60
2023-03-24T03:42:42.777Z,996.57
2023-03-24T03:43:42.858Z,996.59
2023-03-24T03:44:42.964Z,996.54
2023-03-24T03:45:43.406Z,996.52
2023-03-24T03:46:43.407Z,996.53
2023-03-24T03:47:43.625Z,996.49
2023-03-24T03:48:43.619Z,996.50
2023-03-24T03:49:43.723Z,996.48
2023-03-24T03:50:43.851Z,996.49
2023-03-24T03:51:43.985Z,996.45
2023-03-24T03:52:44.120Z,996.45
2023-03-24T03:53:44.243Z,996.42
2023-03-24T03:54:44.378Z,996.46
2023-03-24T03:55:44.666Z,996.47
2023-03-24T03:56:44.690Z,996.45
2023-03-24T03:57:44.794Z,996.45
2023-03-24T03:58:44.907Z,996.46
2023-03-24T03:59:45.023Z,996.40
2023-03-24T04:00:45.137Z,996.42
2023-03-24T04:01:45.282Z,996.41
2023-03-24T04:02:45.407Z,996.40
2023-03-24T04:03:45.528Z,996.36
2023-03-24T04:05:39.020Z,996.35
2023-03-24T04:06:39.118Z,996.30
2023-03-24T04:07:39.240Z,996.30
2023-03-24T04:08:39.322Z,996.22
2023-03-24T04:09:39.433Z,996.20
2023-03-24T04:10:39.719Z,996.18
2023-03-24T04:11:39.752Z,996.18
2023-03-24T04:12:39.908Z,996.17
2023-03-24T04:13:40.048Z,996.16
2023-03-24T04:14:40.186Z,996.22
2023-03-24T04:15:40.643Z,996.22
2023-03-24T04:16:40.512Z,996.15
2023-03-24T04:17:40.518Z,996.15
2023-03-24T04:18:40.613Z,996.12
2023-03-24T04:19:40.712Z,996.11
2023-03-24T04:20:40.832Z,996.12
2023-03-24T04:21:40.917Z,996.12
2023-03-24T04:22:41.038Z,996.11
2023-03-24T04:23:42.124Z,996.09
2023-03-24T04:24:41.335Z,996.09
2023-03-24T04:25:41.452Z,996.11
2023-03-24T04:26:22.987Z,996.07
2023-03-24T04:27:23.100Z,996.11
2023-03-24T04:28:23.204Z,996.05
2023-03-24T04:29:23.284Z,996.02
2023-03-24T04:30:23.428Z,996.09
2023-03-24T04:31:23.657Z,995.99
2023-03-24T04:32:23.629Z,995.96
2023-03-24T04:33:24.228Z,995.96
2023-03-24T04:34:23.924Z,995.94
2023-03-24T04:35:24.333Z,995.94
2023-03-24T04:36:24.208Z,995.85
2023-03-24T04:37:24.314Z,995.86
2023-03-24T04:38:24.394Z,995.86
2023-03-24T04:39:24.582Z,995.81
2023-03-24T04:40:24.678Z,995.80
2023-03-24T04:41:24.776Z,995.81
2023-03-24T04:42:24.879Z,995.79
2023-03-24T04:43:24.979Z,995.79
2023-03-24T04:44:25.109Z,995.77
2023-03-24T04:45:25.187Z,995.82
2023-03-24T04:46:25.351Z,995.82
2023-03-24T04:47:25.396Z,995.79
2023-03-24T04:48:25.482Z,995.83
2023-03-24T04:49:25.600Z,995.76
2023-03-24T04:50:25.690Z,995.73
2023-03-24T04:51:25.778Z,995.77
2023-03-24T04:52:25.984Z,995.75
2023-03-24T04:53:26.081Z,995.74
2023-03-24T04:54:26.293Z,995.71
2023-03-24T04:55:26.379Z,995.74
2023-03-24T04:56:26.583Z,995.73
2023-03-24T04:57:26.644Z,995.69
2023-03-24T04:58:26.736Z,995.69
2023-03-24T04:59:26.821Z,995.60
2023-03-24T05:00:26.940Z,995.78
2023-03-24T05:01:27.073Z,995.63
2023-03-24T05:02:27.212Z,995.62
2023-03-24T05:03:27.335Z,995.61
2023-03-24T05:04:27.463Z,995.54
2023-03-24T05:05:27.556Z,995.60
2023-03-24T05:06:27.711Z,995.57
2023-03-24T05:07:27.818Z,995.56
2023-03-24T05:08:27.930Z,995.60
2023-03-24T05:09:28.036Z,995.52
2023-03-24T05:10:28.128Z,995.52
2023-03-24T05:11:28.220Z,995.58
2023-03-24T05:12:28.315Z,995.49
2023-03-24T05:13:28.390Z,995.51
2023-03-24T05:14:28.605Z,995.47
2023-03-24T05:15:28.780Z,995.43
2023-03-24T05:16:28.951Z,995.54
2023-03-24T05:17:15.316Z,995.60
2023-03-24T05:18:15.393Z,995.49
2023-03-24T05:19:15.612Z,995.49
2023-03-24T05:20:15.724Z,995.60
2023-03-24T05:21:15.833Z,995.54
2023-03-24T05:22:15.958Z,995.56
2023-03-24T05:23:16.072Z,995.50
2023-03-24T05:24:16.195Z,995.47
2023-03-24T05:25:16.299Z,995.51
2023-03-24T05:26:16.399Z,995.43
2023-03-24T05:27:16.625Z,995.47
2023-03-24T05:28:16.754Z,995.44
2023-03-24T05:29:16.838Z,995.52
2023-03-24T05:30:16.959Z,995.46
2023-03-24T05:31:17.162Z,995.46
2023-03-24T05:32:17.219Z,995.50
2023-03-24T05:33:17.332Z,995.52
2023-03-24T05:34:17.435Z,995.56
2023-03-24T05:35:17.579Z,995.46
2023-03-24T05:36:17.680Z,995.53
2023-03-24T05:37:17.885Z,995.51
2023-03-24T05:38:17.982Z,995.54
2023-03-24T05:39:18.182Z,995.55
2023-03-24T05:40:18.279Z,995.55
2023-03-24T05:41:18.417Z,995.49
2023-03-24T05:42:18.520Z,995.54
2023-03-24T05:43:18.637Z,995.57
2023-03-24T05:44:18.781Z,995.59
2023-03-24T05:45:18.876Z,995.48
2023-03-24T05:46:18.991Z,995.58
2023-03-24T05:47:19.089Z,995.45
2023-03-24T05:48:19.201Z,995.42
2023-03-24T05:49:19.297Z,995.44
2023-03-24T05:50:20.185Z,995.43
2023-03-24T05:51:27.350Z,995.48
2023-03-24T05:52:28.866Z,995.46
2023-03-24T05:53:27.597Z,995.35
2023-03-24T05:54:27.695Z,995.43
2023-03-24T05:55:27.801Z,995.36
2023-03-24T05:56:27.915Z,995.38
2023-03-24T05:57:28.041Z,995.40
2023-03-24T05:58:28.154Z,995.40
2023-03-24T05:59:28.235Z,995.43
2023-03-24T06:00:28.445Z,995.36
2023-03-24T06:01:31.391Z,995.40
2023-03-24T06:02:31.627Z,995.34
2023-03-24T06:03:31.892Z,995.32
2023-03-24T06:04:31.961Z,995.43
2023-03-24T06:05:32.099Z,995.50
2023-03-24T06:06:32.346Z,995.33
2023-03-24T06:07:32.506Z,995.23
2023-03-24T06:08:32.652Z,995.34
2023-03-24T06:09:32.787Z,995.25
2023-03-24T06:10:32.962Z,995.29
2023-03-24T06:11:33.402Z,995.27
2023-03-24T06:12:33.342Z,995.21
2023-03-24T06:13:33.488Z,995.17
2023-03-24T06:14:33.640Z,995.18
2023-03-24T06:15:33.824Z,995.20
2023-03-24T06:16:34.003Z,995.18
2023-03-24T06:17:34.134Z,995.19
2023-03-24T06:18:34.260Z,995.15
2023-03-24T06:19:34.413Z,995.24
2023-03-24T06:20:34.567Z,995.07
2023-03-24T06:21:35.294Z,995.04
2023-03-24T06:22:34.940Z,995.01
2023-03-24T06:23:34.963Z,994.99
2023-03-24T06:24:35.221Z,994.99
2023-03-24T06:25:35.340Z,995.05
2023-03-24T06:26:35.585Z,995.03
2023-03-24T06:27:35.743Z,995.00
2023-03-24T06:28:35.873Z,994.92
2023-03-24T06:29:36.010Z,994.92
2023-03-24T06:30:36.269Z,994.92
2023-03-24T06:31:37.384Z,994.91
2023-03-24T06:32:36.590Z,994.84
2023-03-24T06:33:36.698Z,994.87
2023-03-24T06:34:36.945Z,994.93
2023-03-24T06:35:37.106Z,994.90
2023-03-24T06:36:37.239Z,994.91
2023-03-24T06:37:37.381Z,994.91
2023-03-24T06:38:37.632Z,994.91
2023-03-24T06:39:37.762Z,994.92
2023-03-24T06:40:38.019Z,994.86
2023-03-24T06:41:38.147Z,994.93
2023-03-24T06:42:38.301Z,994.92
2023-03-24T06:43:38.524Z,994.87
2023-03-24T06:44:38.709Z,994.89
2023-03-24T06:45:38.952Z,994.94
2023-03-24T06:46:39.014Z,994.92
2023-03-24T06:47:13.165Z,994.90
2023-03-24T06:48:13.366Z,994.89
2023-03-24T06:49:13.486Z,994.93
2023-03-24T06:50:13.679Z,994.92
2023-03-24T06:51:13.863Z,994.87
2023-03-24T06:52:13.991Z,994.89
2023-03-24T06:53:14.271Z,994.89
2023-03-24T06:54:14.419Z,994.91
2023-03-24T06:55:14.811Z,994.88
2023-03-24T06:56:14.705Z,994.80
2023-03-24T06:57:15.043Z,994.77
2023-03-24T06:58:13.125Z,994.86
2023-03-24T06:59:13.221Z,994.83
2023-03-24T07:00:13.287Z,994.82
2023-03-24T07:01:13.495Z,994.81
2023-03-24T07:02:13.913Z,994.82
2023-03-24T07:03:13.809Z,994.78
2023-03-24T07:04:13.829Z,994.78
2023-03-24T07:05:13.922Z,994.77
2023-03-24T07:06:14.013Z,994.73
2023-03-24T07:07:44.852Z,994.81
2023-03-24T07:09:14.654Z,994.84
2023-03-24T07:10:15.388Z,994.68
2023-03-24T07:11:14.632Z,994.63
2023-03-24T07:12:15.328Z,994.56
2023-03-24T07:13:15.378Z,994.58
2023-03-24T07:14:14.995Z,994.54
2023-03-24T07:15:15.187Z,994.58
2023-03-24T07:16:15.300Z,994.60
2023-03-24T07:17:15.350Z,994.57
2023-03-24T07:18:15.492Z,994.56
2023-03-24T07:19:15.631Z,994.51
2023-03-24T07:20:15.749Z,994.48
2023-03-24T07:21:15.866Z,994.52
2023-03-24T07:22:15.960Z,994.51
2023-03-24T07:23:20.707Z,994.48
2023-03-24T07:24:20.843Z,994.39
2023-03-24T07:25:21.730Z,994.44
2023-03-24T07:26:21.212Z,994.43
2023-03-24T07:27:21.439Z,994.41
2023-03-24T07:28:21.526Z,994.42
2023-03-24T07:29:21.695Z,994.35
2023-03-24T07:30:27.303Z,994.36
2023-03-24T07:31:23.108Z,994.31
2023-03-24T07:32:22.230Z,994.38
2023-03-24T07:33:22.323Z,994.31
2023-03-24T07:34:22.783Z,994.26
2023-03-24T07:35:22.709Z,994.28
2023-03-24T07:36:22.848Z,994.30
2023-03-24T07:37:24.430Z,994.46
2023-03-24T07:38:23.103Z,994.35
2023-03-24T07:39:23.235Z,994.58
2023-03-24T07:40:23.366Z,994.37
2023-03-24T07:41:23.514Z,994.28
2023-03-24T07:42:23.953Z,994.41
2023-03-24T07:43:23.867Z,994.32
2023-03-24T07:43:56.488Z,994.44
2023-03-24T07:44:57.226Z,994.41
2023-03-24T07:45:56.949Z,994.35
2023-03-24T07:46:57.088Z,994.33
2023-03-24T07:47:57.363Z,994.36
2023-03-24T07:48:59.529Z,994.38
2023-03-24T07:49:58.617Z,994.41
2023-03-24T07:50:58.320Z,994.39
2023-03-24T07:51:57.914Z,994.49
2023-03-24T07:52:59.968Z,994.43
2023-03-24T07:53:58.249Z,994.45
2023-03-24T07:54:58.393Z,994.50
2023-03-24T07:55:58.537Z,994.46
2023-03-24T07:56:58.714Z,994.43
2023-03-24T07:58:40.068Z,994.48
2023-03-24T07:59:40.787Z,994.49
2023-03-24T08:00:40.227Z,994.53
2023-03-24T08:01:40.480Z,994.43
2023-03-24T08:02:40.507Z,994.34
2023-03-24T08:03:41.059Z,994.35
2023-03-24T08:04:40.719Z,994.36
2023-03-24T08:05:40.772Z,994.44
2023-03-24T08:06:41.028Z,994.41
2023-03-24T08:07:42.545Z,994.39
2023-03-24T08:08:41.208Z,994.35
2023-03-24T08:09:41.344Z,994.32
2023-03-24T08:10:41.548Z,994.35
2023-03-24T08:11:41.656Z,994.33
2023-03-24T08:12:41.848Z,994.32
2023-03-24T08:13:41.909Z,994.52
2023-03-24T08:14:42.005Z,994.34
2023-03-24T08:15:42.115Z,994.43
2023-03-24T08:16:42.902Z,994.45
2023-03-24T08:17:42.320Z,994.30
2023-03-24T08:18:42.438Z,994.27
2023-03-24T08:19:56.169Z,994.37
2023-03-24T08:20:43.634Z,994.40
2023-03-24T08:21:42.725Z,994.42
2023-03-24T08:22:42.854Z,994.38
2023-03-24T08:23:42.981Z,994.75
2023-03-24T08:24:43.074Z,994.46
2023-03-24T08:25:43.169Z,994.39
2023-03-24T08:26:43.273Z,994.36
2023-03-24T08:27:43.359Z,994.42
2023-03-24T08:28:43.480Z,994.35
2023-03-24T08:29:43.565Z,994.33
2023-03-24T08:30:43.769Z,994.34
2023-03-24T08:31:43.768Z,994.26
2023-03-24T08:32:43.950Z,994.31
2023-03-24T08:33:44.000Z,994.37
2023-03-24T08:34:44.092Z,994.37
2023-03-24T08:35:44.246Z,994.35
2023-03-24T08:36:44.454Z,994.32
2023-03-24T08:37:44.482Z,994.26
2023-03-24T08:38:44.581Z,994.23
2023-03-24T08:39:44.676Z,994.28
2023-03-24T08:40:44.791Z,994.16
2023-03-24T08:41:44.859Z,994.28
2023-03-24T08:42:44.988Z,994.24
2023-03-24T08:43:45.092Z,994.37
2023-03-24T08:44:45.192Z,994.44
2023-03-24T08:45:45.370Z,994.39
2023-03-24T08:46:45.476Z,994.37
2023-03-24T08:47:45.638Z,994.35
2023-03-24T08:48:45.700Z,994.32
2023-03-24T08:49:45.831Z,994.30
2023-03-24T08:50:45.948Z,994.27
2023-03-24T08:51:46.342Z,994.28
2023-03-24T08:52:46.179Z,994.33
2023-03-24T08:53:39.068Z,994.26
2023-03-24T08:54:39.555Z,994.30
2023-03-24T08:55:39.258Z,994.40
2023-03-24T08:56:39.443Z,994.30
2023-03-24T08:57:39.562Z,994.29
2023-03-24T08:58:39.709Z,994.32
2023-03-24T08:59:39.850Z,994.39
2023-03-24T09:00:39.995Z,994.49
2023-03-24T09:01:40.684Z,994.40
2023-03-24T09:02:40.301Z,994.43
2023-03-24T09:03:40.430Z,994.27
2023-03-24T09:04:22.599Z,994.31
2023-03-24T09:05:26.956Z,994.40
2023-03-24T09:06:22.237Z,994.42
2023-03-24T09:07:21.356Z,994.41
2023-03-24T09:08:21.483Z,994.41
2023-03-24T09:09:21.592Z,994.43
2023-03-24T09:10:21.699Z,994.53
2023-03-24T09:11:07.701Z,994.45
2023-03-24T09:12:07.166Z,994.47
2023-03-24T09:13:07.259Z,994.45
2023-03-24T09:14:07.436Z,994.46
2023-03-24T09:15:07.544Z,994.43
2023-03-24T09:16:07.699Z,994.46
2023-03-24T09:17:07.779Z,994.42
2023-03-24T09:18:07.903Z,994.56
2023-03-24T09:19:08.004Z,994.40
2023-03-24T09:20:08.127Z,994.46
2023-03-24T09:21:08.212Z,994.56
2023-03-24T09:22:08.333Z,994.56
2023-03-24T09:23:08.433Z,994.61
2023-03-24T09:24:08.651Z,994.54
2023-03-24T09:25:08.930Z,994.59
2023-03-24T09:26:08.946Z,994.58
2023-03-24T09:27:09.066Z,994.53
2023-03-24T09:28:09.658Z,994.51
2023-03-24T09:29:09.464Z,994.53
2023-03-24T09:30:09.867Z,994.56
2023-03-24T09:31:10.088Z,994.61
2023-03-24T09:32:10.505Z,994.65
2023-03-24T09:33:43.038Z,994.68
2023-03-24T09:35:08.869Z,994.64
2023-03-24T09:36:09.005Z,994.60
2023-03-24T09:37:09.219Z,994.59
2023-03-24T09:38:09.235Z,994.58
2023-03-24T09:39:09.334Z,994.67
2023-03-24T09:40:09.746Z,994.52
2023-03-24T09:41:09.644Z,994.60
2023-03-24T09:42:09.683Z,994.58
2023-03-24T09:43:09.762Z,994.55
2023-03-24T09:44:09.868Z,994.59
2023-03-24T09:45:09.935Z,994.58
2023-03-24T09:46:10.202Z,994.61
2023-03-24T09:47:10.235Z,994.76
2023-03-24T09:48:10.494Z,994.66
2023-03-24T09:49:10.436Z,994.66
2023-03-24T09:50:10.537Z,994.60
2023-03-24T09:51:11.390Z,994.63
2023-03-24T09:52:11.043Z,994.73
2023-03-24T09:53:11.104Z,994.66
2023-03-24T09:54:11.511Z,994.65
2023-03-24T09:55:23.816Z,994.67
2023-03-24T09:56:23.965Z,994.66
2023-03-24T09:58:14.850Z,994.73
2023-03-24T09:59:15.009Z,994.68
2023-03-24T10:00:15.112Z,994.67
2023-03-24T10:01:15.790Z,994.68
2023-03-24T10:02:15.433Z,994.89
2023-03-24T10:03:15.694Z,994.69
2023-03-24T10:04:15.891Z,994.71
2023-03-24T10:05:22.920Z,994.77
2023-03-24T10:06:15.991Z,994.73
2023-03-24T10:07:16.075Z,994.73
2023-03-24T10:08:16.586Z,994.69
2023-03-24T10:09:16.476Z,994.77
2023-03-24T10:10:16.591Z,994.83
2023-03-24T10:11:16.687Z,994.79
2023-03-24T10:12:16.894Z,994.80
2023-03-24T10:13:16.999Z,994.75
2023-03-24T10:14:17.228Z,994.69
2023-03-24T10:15:24.284Z,994.72
2023-03-24T10:16:18.581Z,994.79
2023-03-24T10:17:17.662Z,994.76
2023-03-24T10:18:17.874Z,994.79
2023-03-24T10:19:17.978Z,994.73
2023-03-24T10:20:18.125Z,994.87
2023-03-24T10:21:18.236Z,994.77
2023-03-24T10:22:18.360Z,994.80
2023-03-24T10:23:18.462Z,994.75
2023-03-24T10:24:18.696Z,994.76
2023-03-24T10:25:18.801Z,994.76
2023-03-24T10:26:18.924Z,994.76
2023-03-24T10:27:19.115Z,994.83
2023-03-24T10:28:19.235Z,994.71
2023-03-24T10:29:19.336Z,994.77
2023-03-24T10:30:19.455Z,994.77
2023-03-24T10:31:19.607Z,994.80
2023-03-24T10:32:19.695Z,994.59
2023-03-24T10:33:19.804Z,994.61
2023-03-24T10:34:19.947Z,994.56
2023-03-24T10:35:20.054Z,994.64
2023-03-24T10:36:20.233Z,994.68
2023-03-24T10:37:20.320Z,994.81
2023-03-24T10:38:20.416Z,994.76
2023-03-24T10:39:24.257Z,994.86
2023-03-24T10:40:21.613Z,994.72
2023-03-24T10:41:20.786Z,994.67
2023-03-24T10:42:20.988Z,994.75
2023-03-24T10:43:21.063Z,994.66
2023-03-24T10:44:43.998Z,994.61
2023-03-24T10:45:44.076Z,994.76
2023-03-24T10:46:44.158Z,994.70
2023-03-24T10:47:44.284Z,994.70
2023-03-24T10:48:44.423Z,994.67
2023-03-24T10:49:44.481Z,994.64
2023-03-24T10:50:45.119Z,994.58
2023-03-24T10:51:50.061Z,994.64
2023-03-24T10:52:50.191Z,994.67
2023-03-24T10:53:52.283Z,994.70
2023-03-24T10:54:50.478Z,994.69
2023-03-24T10:55:51.186Z,994.67
2023-03-24T10:56:50.978Z,994.74
2023-03-24T10:57:50.974Z,994.74
2023-03-24T10:58:51.701Z,994.78
2023-03-24T10:59:51.268Z,994.71
2023-03-24T11:00:51.446Z,994.79
2023-03-24T11:01:51.915Z,994.67
2023-03-24T11:03:15.696Z,994.78
2023-03-24T11:04:15.778Z,994.73
2023-03-24T11:05:15.916Z,994.81
2023-03-24T11:05:49.486Z,994.74
2023-03-24T11:06:49.386Z,994.71
2023-03-24T11:07:49.490Z,994.73
2023-03-24T11:08:50.349Z,994.78
2023-03-24T11:09:41.492Z,994.75
2023-03-24T11:10:41.612Z,994.84
2023-03-24T11:11:41.733Z,994.84
2023-03-24T11:12:42.617Z,994.97
2023-03-24T11:13:42.048Z,994.81
2023-03-24T11:14:42.177Z,994.84
2023-03-24T11:15:42.309Z,994.90
2023-03-24T11:16:42.457Z,994.94
2023-03-24T11:17:42.623Z,994.99
2023-03-24T11:18:34.989Z,994.95
2023-03-24T11:19:35.240Z,994.94
2023-03-24T11:20:35.213Z,994.90
2023-03-24T11:21:35.435Z,995.10
2023-03-24T11:22:35.530Z,994.97
2023-03-24T11:23:35.667Z,994.91
2023-03-24T11:24:35.769Z,994.96
2023-03-24T11:25:20.547Z,994.90
2023-03-24T11:26:20.664Z,994.96
2023-03-24T11:27:21.024Z,994.71
2023-03-24T11:28:20.912Z,994.79
2023-03-24T11:29:21.569Z,995.01
2023-03-24T11:30:21.198Z,994.81
2023-03-24T11:31:21.631Z,994.74
2023-03-24T11:32:21.410Z,994.78
2023-03-24T11:33:21.494Z,994.83
2023-03-24T11:34:22.693Z,994.73
2023-03-24T11:36:21.961Z,994.68
2023-03-24T11:37:22.061Z,994.71
2023-03-24T11:38:22.163Z,994.74
2023-03-24T11:39:22.410Z,994.72
2023-03-24T11:40:22.518Z,994.77
2023-03-24T11:41:22.760Z,994.82
2023-03-24T11:42:22.861Z,994.69
2023-03-24T11:43:23.070Z,994.85
2023-03-24T11:44:23.220Z,994.73
2023-03-24T11:45:23.337Z,994.76
2023-03-24T11:46:23.623Z,994.85
2023-03-24T11:47:23.687Z,994.82
2023-03-24T11:48:23.738Z,994.82
2023-03-24T11:49:23.993Z,994.79
2023-03-24T11:50:24.092Z,994.77
2023-03-24T11:51:24.188Z,994.93
2023-03-24T11:52:24.283Z,994.93
2023-03-24T11:53:24.413Z,994.90
2023-03-24T11:54:25.432Z,994.89
2023-03-24T11:55:24.606Z,994.85
2023-03-24T11:56:24.698Z,994.88
2023-03-24T11:57:24.797Z,994.86
2023-03-24T11:58:24.911Z,994.94
2023-03-24T11:59:25.024Z,995.09
2023-03-24T12:00:25.115Z,994.83
2023-03-24T12:00:59.718Z,994.94
2023-03-24T12:01:59.832Z,994.87
2023-03-24T12:03:00.048Z,994.96
2023-03-24T12:04:00.385Z,994.84
2023-03-24T12:05:00.318Z,994.84
2023-03-24T12:06:00.455Z,994.87
2023-03-24T12:07:00.583Z,994.84
2023-03-24T12:08:00.714Z,994.79
2023-03-24T12:09:00.927Z,994.66
2023-03-24T12:10:01.080Z,994.79
2023-03-24T12:11:01.231Z,994.58
2023-03-24T12:12:01.384Z,994.64
2023-03-24T12:13:02.504Z,994.55
2023-03-24T12:14:01.762Z,994.59
2023-03-24T12:15:01.892Z,994.62
2023-03-24T12:16:02.082Z,994.60
2023-03-24T12:17:02.194Z,994.72
2023-03-24T12:18:02.413Z,994.71
2023-03-24T12:19:02.552Z,994.69
2023-03-24T12:20:02.846Z,994.74
2023-03-24T12:21:02.851Z,994.82
2023-03-24T12:22:03.108Z,994.83
2023-03-24T12:23:52.437Z,994.70
2023-03-24T12:24:53.319Z,994.68
2023-03-24T12:25:52.774Z,994.70
2023-03-24T12:26:53.058Z,994.77
2023-03-24T12:27:53.076Z,994.84
2023-03-24T12:28:53.208Z,994.85
2023-03-24T12:29:53.353Z,994.99
2023-03-24T12:30:53.460Z,995.01
2023-03-24T12:31:53.622Z,995.04
2023-03-24T12:32:53.744Z,995.04
2023-03-24T12:33:53.956Z,995.04
2023-03-24T12:34:54.101Z,995.09
2023-03-24T12:35:54.422Z,995.12
2023-03-24T12:36:54.340Z,995.07
2023-03-24T12:37:54.693Z,995.08
2023-03-24T12:38:54.696Z,995.05